createdAt,value
2023-08-17T00:00:41.454Z,1.08
2023-08-17T00:03:09.557Z,1.13
2023-08-17T00:05:38.032Z,1.27
2023-08-17T00:08:06.779Z,0.90
2023-08-17T00:10:34.880Z,1.35
2023-08-17T00:13:04.783Z,0.90
2023-08-17T00:15:34.417Z,0.93
2023-08-17T00:18:03.037Z,0.90
2023-08-17T00:20:31.109Z,1.15
2023-08-17T00:22:59.219Z,1.02
2023-08-17T00:25:27.392Z,1.20
2023-08-17T00:27:55.602Z,2.30
2023-08-17T00:30:23.766Z,1.30
2023-08-17T00:32:53.175Z,1.15
2023-08-17T00:35:21.421Z,1.15
2023-08-17T00:37:49.544Z,1.15
2023-08-17T00:40:17.656Z,1.10
2023-08-17T00:42:45.751Z,1.85
2023-08-17T00:45:13.868Z,2.08
2023-08-17T00:47:44.226Z,1.45
2023-08-17T00:50:13.925Z,1.90
2023-08-17T00:52:42.523Z,2.20
2023-08-17T00:55:13.394Z,1.55
2023-08-17T00:57:42.584Z,1.75
2023-08-17T01:00:12.612Z,1.85
2023-08-17T01:02:41.362Z,2.10
2023-08-17T01:05:10.256Z,1.63
2023-08-17T01:07:39.787Z,2.00
2023-08-17T01:10:11.139Z,2.00
2023-08-17T01:12:46.165Z,1.70
2023-08-17T01:15:19.367Z,2.00
2023-08-17T01:17:55.386Z,1.85
2023-08-17T01:20:25.146Z,1.85
2023-08-17T01:22:58.704Z,2.00
2023-08-17T01:25:28.133Z,2.20
2023-08-17T01:27:56.286Z,2.25
2023-08-17T01:30:24.435Z,2.17
2023-08-17T01:32:56.251Z,2.10
2023-08-17T01:35:32.882Z,2.42
2023-08-17T01:38:02.125Z,2.20
2023-08-17T01:40:34.917Z,1.65
2023-08-17T01:43:04.405Z,1.75
2023-08-17T01:45:32.602Z,1.40
2023-08-17T01:48:03.324Z,1.20
2023-08-17T01:50:32.702Z,1.33
2023-08-17T01:53:00.826Z,1.20
2023-08-17T01:55:29.077Z,1.20
2023-08-17T01:57:58.529Z,1.20
2023-08-17T02:00:26.604Z,1.35
2023-08-17T02:02:54.734Z,1.20
2023-08-17T02:05:22.973Z,0.95
2023-08-17T02:07:51.030Z,1.10
2023-08-17T02:10:19.113Z,1.30
2023-08-17T02:12:48.067Z,1.20
2023-08-17T02:15:17.691Z,1.25
2023-08-17T02:17:46.055Z,1.35
2023-08-17T02:20:15.347Z,1.10
2023-08-17T02:22:44.639Z,0.95
2023-08-17T02:25:12.708Z,1.33
2023-08-17T02:27:40.765Z,1.50
2023-08-17T02:30:09.966Z,1.10
2023-08-17T02:32:39.396Z,1.05
2023-08-17T02:35:09.994Z,1.10
2023-08-17T02:37:38.190Z,1.20
2023-08-17T02:40:07.469Z,1.20
2023-08-17T02:42:35.553Z,1.17
2023-08-17T02:45:03.608Z,1.00
2023-08-17T02:47:31.730Z,0.90
2023-08-17T02:50:01.114Z,1.13
2023-08-17T02:52:29.174Z,1.20
2023-08-17T02:54:57.227Z,1.17
2023-08-17T02:57:26.104Z,1.85
2023-08-17T02:59:54.385Z,1.25
2023-08-17T03:02:22.579Z,1.10
2023-08-17T03:04:50.632Z,1.40
2023-08-17T03:07:20.554Z,1.38
2023-08-17T03:09:48.618Z,2.42
2023-08-17T03:12:16.854Z,1.30
2023-08-17T03:14:44.919Z,1.40
2023-08-17T03:17:13.027Z,1.20
2023-08-17T03:19:41.225Z,1.08
2023-08-17T03:22:09.415Z,1.20
2023-08-17T03:24:38.951Z,1.30
2023-08-17T03:27:07.192Z,1.13
2023-08-17T03:29:36.291Z,1.30
2023-08-17T03:32:04.666Z,1.25
2023-08-17T03:34:32.724Z,1.13
2023-08-17T03:37:02.596Z,1.10
2023-08-17T03:39:31.977Z,1.25
2023-08-17T03:42:01.521Z,1.30
2023-08-17T03:44:29.645Z,1.00
2023-08-17T03:46:57.717Z,0.88
2023-08-17T03:49:25.805Z,1.25
2023-08-17T03:51:53.857Z,0.98
2023-08-17T03:54:23.005Z,0.90
2023-08-17T03:56:51.167Z,1.40
2023-08-17T03:59:20.636Z,1.05
2023-08-17T04:01:48.724Z,1.55
2023-08-17T04:04:17.012Z,1.00
2023-08-17T04:06:45.092Z,0.90
2023-08-17T04:09:13.538Z,0.82
2023-08-17T04:11:42.089Z,1.10
2023-08-17T04:14:10.720Z,0.90
2023-08-17T04:16:40.272Z,1.17
2023-08-17T04:19:08.947Z,1.27
2023-08-17T04:21:37.086Z,1.00
2023-08-17T04:24:06.502Z,0.90
2023-08-17T04:26:34.645Z,0.93
2023-08-17T04:29:03.347Z,1.27
2023-08-17T04:31:31.517Z,1.08
2023-08-17T04:34:04.439Z,0.80
2023-08-17T04:36:32.597Z,0.90
2023-08-17T04:39:00.775Z,1.00
2023-08-17T04:41:28.841Z,1.08
2023-08-17T04:43:57.085Z,1.33
2023-08-17T04:46:25.198Z,0.85
2023-08-17T04:48:53.480Z,0.90
2023-08-17T04:51:22.969Z,0.90
2023-08-17T04:53:51.080Z,0.90
2023-08-17T04:56:19.275Z,0.85
2023-08-17T04:58:48.234Z,0.70
2023-08-17T05:01:17.256Z,0.80
2023-08-17T05:03:45.513Z,0.90
2023-08-17T05:06:14.192Z,0.80
2023-08-17T05:08:43.661Z,0.73
2023-08-17T05:11:11.849Z,0.80
2023-08-17T05:13:40.579Z,0.65
2023-08-17T05:16:08.865Z,0.70
2023-08-17T05:18:37.677Z,0.65
2023-08-17T05:21:05.971Z,0.60
2023-08-17T05:23:34.236Z,0.70
2023-08-17T05:26:03.738Z,0.80
2023-08-17T05:28:32.019Z,0.60
2023-08-17T05:31:06.889Z,0.70
2023-08-17T05:33:37.842Z,0.70
2023-08-17T05:36:06.417Z,0.60
2023-08-17T05:38:34.627Z,0.52
2023-08-17T05:41:04.188Z,0.70
2023-08-17T05:43:32.296Z,0.50
2023-08-17T05:46:01.170Z,0.50
2023-08-17T05:48:29.284Z,0.60
2023-08-17T05:50:57.923Z,0.60
2023-08-17T05:53:26.008Z,0.50
2023-08-17T05:55:54.131Z,0.80
2023-08-17T05:58:23.604Z,0.70
2023-08-17T06:00:52.384Z,0.70
2023-08-17T06:03:20.499Z,0.60
2023-08-17T06:05:48.614Z,0.70
2023-08-17T06:08:16.689Z,1.00
2023-08-17T06:10:44.771Z,0.80
2023-08-17T06:13:12.820Z,1.00
2023-08-17T06:15:42.246Z,0.95
2023-08-17T06:18:10.311Z,1.00
2023-08-17T06:20:38.456Z,1.00
2023-08-17T06:23:06.554Z,0.85
2023-08-17T06:25:35.280Z,2.20
2023-08-17T06:28:03.542Z,1.15
2023-08-17T06:30:31.641Z,0.98
2023-08-17T06:33:01.143Z,0.90
2023-08-17T06:35:29.319Z,1.10
2023-08-17T06:37:58.990Z,1.20
2023-08-17T06:40:27.222Z,1.40
2023-08-17T06:42:55.465Z,1.20
2023-08-17T06:45:23.859Z,0.85
2023-08-17T06:47:52.231Z,0.80
2023-08-17T06:50:21.865Z,0.70
2023-08-17T06:52:50.061Z,1.10
2023-08-17T06:55:18.236Z,0.85
2023-08-17T06:57:49.086Z,0.80
2023-08-17T07:00:21.310Z,1.30
2023-08-17T07:02:54.596Z,0.93
2023-08-17T07:05:26.660Z,1.00
2023-08-17T07:07:55.008Z,1.08
2023-08-17T07:10:23.237Z,1.17
2023-08-17T07:12:51.332Z,1.40
2023-08-17T07:15:19.526Z,1.10
2023-08-17T07:17:47.635Z,1.67
2023-08-17T07:20:17.257Z,1.17
2023-08-17T07:22:47.137Z,1.30
2023-08-17T07:25:15.311Z,1.88
2023-08-17T07:27:43.950Z,1.25
2023-08-17T07:30:13.375Z,1.20
2023-08-17T07:32:41.515Z,0.98
2023-08-17T07:35:10.030Z,1.20
2023-08-17T07:37:38.362Z,1.30
2023-08-17T07:40:09.543Z,1.38
2023-08-17T07:42:38.760Z,1.20
2023-08-17T07:45:08.425Z,1.38
2023-08-17T07:47:37.755Z,1.35
2023-08-17T07:50:06.940Z,1.30
2023-08-17T07:52:34.957Z,1.30
2023-08-17T07:55:02.912Z,1.40
2023-08-17T07:57:32.772Z,1.00
2023-08-17T08:00:00.828Z,1.38
2023-08-17T08:02:28.865Z,1.60
2023-08-17T08:04:57.129Z,1.50
2023-08-17T08:07:25.564Z,1.40
2023-08-17T08:09:53.920Z,1.70
2023-08-17T08:12:22.149Z,1.55
2023-08-17T08:14:52.245Z,1.30
2023-08-17T08:17:21.026Z,1.35
2023-08-17T08:19:49.346Z,1.33
2023-08-17T08:22:17.564Z,1.83
2023-08-17T08:24:45.669Z,1.40
2023-08-17T08:27:13.861Z,1.35
2023-08-17T08:29:42.143Z,1.35
2023-08-17T08:32:11.573Z,1.35
2023-08-17T08:34:39.715Z,1.48
2023-08-17T08:37:07.966Z,1.40
2023-08-17T08:39:50.938Z,1.60
2023-08-17T08:42:19.369Z,1.40
2023-08-17T08:44:47.747Z,1.50
2023-08-17T08:47:18.930Z,1.70
2023-08-17T08:49:56.563Z,1.50
2023-08-17T08:52:25.639Z,1.70
2023-08-17T08:54:59.241Z,1.15
2023-08-17T08:57:30.887Z,1.58
2023-08-17T09:00:01.101Z,1.52
2023-08-17T09:02:32.034Z,1.65
2023-08-17T09:05:02.358Z,1.65
2023-08-17T09:07:31.797Z,1.67
2023-08-17T09:09:59.901Z,1.50
2023-08-17T09:12:39.629Z,2.10
2023-08-17T09:15:09.418Z,1.50
2023-08-17T09:17:39.075Z,1.60
2023-08-17T09:20:09.368Z,1.55
2023-08-17T09:22:42.279Z,1.38
2023-08-17T09:25:11.397Z,1.40
2023-08-17T09:27:40.237Z,1.40
2023-08-17T09:30:10.542Z,1.40
2023-08-17T09:32:40.005Z,1.48
2023-08-17T09:35:09.242Z,1.13
2023-08-17T09:37:37.365Z,1.50
2023-08-17T09:40:05.857Z,1.58
2023-08-17T09:42:37.252Z,1.35
2023-08-17T09:45:06.230Z,1.40
2023-08-17T09:47:34.443Z,1.73
2023-08-17T09:50:08.787Z,1.35
2023-08-17T09:52:41.202Z,1.95
2023-08-17T09:55:11.222Z,1.80
2023-08-17T09:57:40.847Z,1.70
2023-08-17T10:00:10.981Z,1.50
2023-08-17T10:02:39.099Z,1.85
2023-08-17T10:05:14.158Z,1.25
2023-08-17T10:07:46.252Z,1.30
2023-08-17T10:10:15.877Z,1.88
2023-08-17T10:12:49.364Z,1.20
2023-08-17T10:15:20.554Z,1.35
2023-08-17T10:17:58.764Z,1.50
2023-08-17T10:20:30.956Z,1.55
2023-08-17T10:23:04.532Z,1.83
2023-08-17T10:25:33.724Z,1.38
2023-08-17T10:28:04.744Z,1.23
2023-08-17T10:30:33.272Z,1.33
2023-08-17T10:33:02.127Z,1.90
2023-08-17T10:35:32.450Z,2.05
2023-08-17T10:38:01.022Z,1.70
2023-08-17T10:40:29.796Z,1.58
2023-08-17T10:42:58.301Z,1.58
2023-08-17T10:45:32.167Z,1.70
2023-08-17T10:48:29.693Z,1.45
2023-08-17T10:51:04.112Z,1.55
2023-08-17T10:53:43.841Z,1.83
2023-08-17T10:56:16.390Z,1.80
2023-08-17T10:58:45.999Z,1.77
2023-08-17T11:01:15.232Z,1.67
2023-08-17T11:03:44.321Z,2.00
2023-08-17T11:06:19.624Z,1.50
2023-08-17T11:08:56.017Z,1.67
2023-08-17T11:11:24.825Z,1.55
2023-08-17T11:13:57.344Z,2.20
2023-08-17T11:16:26.176Z,1.55
2023-08-17T11:18:56.787Z,1.63
2023-08-17T11:21:26.627Z,1.42
2023-08-17T11:23:57.881Z,1.40
2023-08-17T11:26:26.180Z,1.58
2023-08-17T11:28:54.399Z,1.75
2023-08-17T11:31:22.535Z,1.40
2023-08-17T11:36:24.785Z,1.80
2023-08-17T11:38:55.047Z,1.65
2023-08-17T11:41:23.614Z,1.88
2023-08-17T11:43:52.145Z,1.95
2023-08-17T11:46:20.833Z,1.70
2023-08-17T11:48:49.689Z,1.80
2023-08-17T11:51:17.792Z,1.70
2023-08-17T11:53:50.763Z,1.42
2023-08-17T11:56:20.261Z,1.80
2023-08-17T11:58:48.880Z,1.70
2023-08-17T12:01:18.298Z,1.58
2023-08-17T12:03:47.270Z,1.50
2023-08-17T12:06:15.793Z,1.75
2023-08-17T12:08:47.870Z,1.75
2023-08-17T12:11:18.478Z,1.60
2023-08-17T12:13:51.610Z,1.40
2023-08-17T12:16:20.039Z,1.45
2023-08-17T12:18:50.102Z,1.58
2023-08-17T12:21:18.399Z,1.50
2023-08-17T12:23:46.605Z,1.58
2023-08-17T12:26:20.968Z,1.45
2023-08-17T12:28:51.669Z,1.73
2023-08-17T12:31:25.140Z,1.75
2023-08-17T12:33:54.048Z,1.50
2023-08-17T12:36:22.741Z,2.00
2023-08-17T12:38:52.242Z,2.20
2023-08-17T12:41:20.793Z,1.60
2023-08-17T12:43:50.238Z,1.55
2023-08-17T12:46:18.426Z,1.92
2023-08-17T12:48:46.553Z,1.58
2023-08-17T12:51:14.772Z,1.67
2023-08-17T12:53:43.600Z,1.95
2023-08-17T12:56:17.752Z,1.90
2023-08-17T12:58:45.818Z,1.27
2023-08-17T13:01:15.569Z,1.27
2023-08-17T13:03:43.682Z,1.67
2023-08-17T13:06:11.842Z,1.52
2023-08-17T13:08:42.976Z,1.48
2023-08-17T13:11:12.395Z,1.40
2023-08-17T13:13:40.475Z,1.40
2023-08-17T13:16:08.710Z,1.38
2023-08-17T13:18:38.258Z,1.50
2023-08-17T13:21:06.418Z,1.23
2023-08-17T13:23:34.667Z,1.20
2023-08-17T13:26:02.820Z,1.30
2023-08-17T13:28:30.945Z,1.40
2023-08-17T13:31:07.788Z,1.58
2023-08-17T13:33:47.765Z,1.75
2023-08-17T13:36:15.927Z,2.78
2023-08-17T13:38:45.354Z,2.90
2023-08-17T13:41:13.576Z,2.13
2023-08-17T13:43:41.994Z,1.98
2023-08-17T13:46:10.719Z,2.10
2023-08-17T13:48:40.168Z,3.00
2023-08-17T13:51:09.669Z,2.45
2023-08-17T13:53:37.867Z,2.70
2023-08-17T13:56:06.274Z,2.60
2023-08-17T13:58:34.497Z,2.45
2023-08-17T14:01:02.748Z,2.05
2023-08-17T14:03:31.668Z,2.50
2023-08-17T14:05:59.874Z,1.98
2023-08-17T14:08:29.360Z,2.20
2023-08-17T14:10:57.443Z,3.00
2023-08-17T14:13:25.577Z,2.88
2023-08-17T14:15:57.007Z,2.80
2023-08-17T14:18:25.292Z,2.83
2023-08-17T14:20:53.425Z,2.50
2023-08-17T14:23:21.526Z,2.50
2023-08-17T14:25:53.002Z,2.30
2023-08-17T14:28:21.403Z,2.53
2023-08-17T14:33:20.710Z,2.20
2023-08-17T14:35:48.937Z,1.73
2023-08-17T14:38:17.201Z,2.05
2023-08-17T14:40:46.225Z,2.17
2023-08-17T14:43:15.787Z,2.33
2023-08-17T14:45:44.687Z,2.50
2023-08-17T14:48:12.904Z,2.25
2023-08-17T14:50:41.038Z,2.70
2023-08-17T14:53:09.189Z,2.88
2023-08-17T14:55:37.280Z,3.08
2023-08-17T14:58:05.843Z,3.08
2023-08-17T15:00:35.881Z,3.08
2023-08-17T15:03:04.221Z,2.70
2023-08-17T15:05:32.397Z,2.75
2023-08-17T15:08:00.464Z,2.22
2023-08-17T15:10:28.565Z,1.95
2023-08-17T15:12:56.675Z,2.28
2023-08-17T15:15:35.655Z,2.10
2023-08-17T15:18:03.773Z,2.28
2023-08-17T15:20:34.610Z,2.85
2023-08-17T15:23:02.729Z,2.55
2023-08-17T15:25:30.814Z,2.45
2023-08-17T15:27:58.863Z,3.03
2023-08-17T15:30:26.960Z,2.80
2023-08-17T15:32:56.408Z,3.03
2023-08-17T15:35:24.556Z,2.05
2023-08-17T15:37:52.636Z,2.15
2023-08-17T15:40:21.006Z,1.83
2023-08-17T15:42:49.478Z,2.03
2023-08-17T15:45:18.994Z,1.88
2023-08-17T15:47:47.075Z,1.80
2023-08-17T15:50:16.528Z,1.90
2023-08-17T15:52:44.795Z,2.10
2023-08-17T15:55:12.927Z,2.13
2023-08-17T15:57:41.004Z,1.55
2023-08-17T16:00:10.530Z,2.30
2023-08-17T16:02:38.620Z,1.98
2023-08-17T16:05:07.457Z,2.28
2023-08-17T16:07:36.935Z,2.70
2023-08-17T16:10:06.843Z,2.70
2023-08-17T16:12:34.941Z,2.47
2023-08-17T16:15:03.515Z,2.65
2023-08-17T16:17:31.887Z,2.30
2023-08-17T16:20:00.238Z,2.08
2023-08-17T16:22:28.306Z,2.50
2023-08-17T16:24:57.763Z,2.17
2023-08-17T16:27:26.074Z,2.58
2023-08-17T16:29:55.830Z,2.53
2023-08-17T16:32:24.095Z,1.80
2023-08-17T16:34:52.220Z,1.95
2023-08-17T16:37:20.325Z,2.45
2023-08-17T16:39:48.427Z,2.60
2023-08-17T16:42:19.251Z,2.28
2023-08-17T16:44:47.333Z,2.50
2023-08-17T16:47:19.792Z,2.33
2023-08-17T16:49:48.105Z,2.20
2023-08-17T16:52:16.212Z,2.03
2023-08-17T16:54:47.281Z,2.45
2023-08-17T16:57:17.818Z,2.70
2023-08-17T16:59:46.095Z,2.67
2023-08-17T17:02:14.751Z,2.28
2023-08-17T17:04:44.653Z,2.63
2023-08-17T17:07:12.741Z,3.08
2023-08-17T17:09:40.844Z,3.75
2023-08-17T17:12:09.369Z,3.17
2023-08-17T17:14:40.516Z,3.08
2023-08-17T17:17:08.744Z,2.78
2023-08-17T17:19:36.931Z,3.03
2023-08-17T17:22:05.501Z,3.05
2023-08-17T17:24:33.718Z,2.92
2023-08-17T17:27:01.804Z,3.50
2023-08-17T17:29:29.912Z,3.40
2023-08-17T17:31:59.370Z,3.00
2023-08-17T17:34:27.459Z,3.35
2023-08-17T17:36:55.773Z,2.78
2023-08-17T17:39:23.866Z,2.97
2023-08-17T17:41:51.974Z,3.33
2023-08-17T17:44:20.044Z,2.72
2023-08-17T17:46:48.184Z,2.90
2023-08-17T17:49:17.624Z,2.95
2023-08-17T17:51:46.052Z,2.95
2023-08-17T17:54:14.127Z,3.67
2023-08-17T17:56:43.417Z,2.90
2023-08-17T17:59:12.010Z,2.65
2023-08-17T18:01:40.412Z,3.42
2023-08-17T18:04:08.678Z,3.03
2023-08-17T18:06:38.150Z,3.00
2023-08-17T18:09:06.803Z,3.05
2023-08-17T18:11:34.955Z,2.83
2023-08-17T18:14:03.526Z,3.05
2023-08-17T18:16:32.133Z,3.10
2023-08-17T18:19:00.307Z,3.38
2023-08-17T18:21:31.087Z,3.95
2023-08-17T18:24:01.123Z,3.15
2023-08-17T18:26:29.227Z,3.40
2023-08-17T18:28:57.513Z,3.65
2023-08-17T18:31:25.601Z,2.95
2023-08-17T18:33:53.715Z,3.20
2023-08-17T18:36:21.806Z,2.88
2023-08-17T18:38:49.912Z,2.95
2023-08-17T18:41:19.393Z,3.13
2023-08-17T18:43:47.557Z,3.30
2023-08-17T18:46:15.729Z,2.22
2023-08-17T18:48:43.903Z,3.03
2023-08-17T18:51:12.162Z,3.17
2023-08-17T18:53:40.282Z,3.00
2023-08-17T18:56:08.450Z,3.00
2023-08-17T18:58:37.850Z,2.85
2023-08-17T19:01:05.920Z,2.90
2023-08-17T19:03:34.112Z,3.00
2023-08-17T19:06:03.380Z,3.17
2023-08-17T19:08:31.546Z,2.90
2023-08-17T19:10:59.669Z,3.08
2023-08-17T19:13:27.973Z,2.63
2023-08-17T19:15:57.424Z,2.75
2023-08-17T19:18:25.648Z,3.15
2023-08-17T19:20:53.781Z,2.83
2023-08-17T19:23:21.986Z,2.20
2023-08-17T19:25:50.201Z,2.53
2023-08-17T19:28:18.329Z,2.67
2023-08-17T19:30:46.458Z,2.60
2023-08-17T19:33:15.853Z,2.40
2023-08-17T19:35:46.113Z,2.35
2023-08-17T19:38:14.481Z,2.75
2023-08-17T19:40:45.637Z,2.90
2023-08-17T19:43:13.798Z,2.25
2023-08-17T19:45:42.165Z,2.58
2023-08-17T19:48:10.420Z,3.00
2023-08-17T19:50:41.540Z,2.78
2023-08-17T19:53:09.662Z,2.42
2023-08-17T19:55:37.878Z,3.28
2023-08-17T19:58:06.283Z,2.65
2023-08-17T20:00:34.349Z,2.75
2023-08-17T20:03:02.575Z,2.88
2023-08-17T20:05:30.740Z,2.50
2023-08-17T20:08:00.209Z,2.88
2023-08-17T20:10:28.346Z,2.80
2023-08-17T20:12:56.453Z,2.28
2023-08-17T20:15:24.586Z,3.10
2023-08-17T20:17:52.735Z,2.50
2023-08-17T20:20:21.041Z,2.30
2023-08-17T20:22:49.144Z,2.38
2023-08-17T20:25:18.768Z,2.47
2023-08-17T20:27:46.870Z,2.55
2023-08-17T20:30:15.262Z,2.70
2023-08-17T20:32:43.397Z,2.20
2023-08-17T20:35:11.669Z,2.65
2023-08-17T20:37:40.424Z,2.53
2023-08-17T20:40:10.213Z,2.50
2023-08-17T20:42:39.667Z,2.78
2023-08-17T20:45:09.180Z,2.28
2023-08-17T20:47:37.258Z,2.65
2023-08-17T20:50:08.449Z,2.70
2023-08-17T20:52:36.536Z,2.20
2023-08-17T20:55:05.395Z,2.40
2023-08-17T20:57:33.458Z,2.55
2023-08-17T21:00:02.941Z,2.58
2023-08-17T21:02:31.077Z,2.60
2023-08-17T21:04:59.175Z,3.10
2023-08-17T21:07:30.422Z,3.22
2023-08-17T21:09:58.932Z,2.60
2023-08-17T21:12:28.486Z,2.75
2023-08-17T21:14:58.290Z,3.05
2023-08-17T21:17:28.712Z,2.70
2023-08-17T21:19:57.188Z,2.20
2023-08-17T21:22:25.354Z,2.90
2023-08-17T21:24:53.495Z,2.92
2023-08-17T21:27:21.547Z,2.65
2023-08-17T21:29:49.621Z,2.55
2023-08-17T21:32:17.731Z,2.72
2023-08-17T21:34:47.849Z,2.88
2023-08-17T21:37:27.445Z,2.92
2023-08-17T21:39:56.591Z,2.72
2023-08-17T21:42:24.831Z,2.60
2023-08-17T21:44:53.554Z,2.65
2023-08-17T21:47:21.729Z,3.00
2023-08-17T21:49:51.162Z,2.78
2023-08-17T21:52:19.437Z,2.55
2023-08-17T21:54:50.119Z,2.53
2023-08-17T21:57:18.322Z,3.08
2023-08-17T21:59:46.563Z,3.33
2023-08-17T22:02:14.688Z,3.00
2023-08-17T22:04:42.760Z,3.65
2023-08-17T22:07:12.168Z,3.10
2023-08-17T22:09:40.298Z,2.63
2023-08-17T22:12:08.680Z,3.00
2023-08-17T22:14:36.789Z,2.67
2023-08-17T22:17:04.854Z,3.40
2023-08-17T22:19:33.140Z,3.17
2023-08-17T22:22:01.280Z,2.63
2023-08-17T22:24:37.989Z,2.83
2023-08-17T22:27:17.747Z,3.05
2023-08-17T22:29:45.975Z,3.53
2023-08-17T22:32:14.099Z,3.25
2023-08-17T22:34:42.174Z,2.60
2023-08-17T22:37:11.486Z,3.17
2023-08-17T22:39:40.987Z,3.42
2023-08-17T22:42:09.097Z,2.78
2023-08-17T22:44:37.254Z,3.00
2023-08-17T22:47:05.575Z,2.88
2023-08-17T22:49:33.769Z,2.83
2023-08-17T22:52:01.950Z,3.33
2023-08-17T22:54:30.039Z,3.00
2023-08-17T22:56:59.502Z,3.05
2023-08-17T22:59:28.024Z,3.10
2023-08-17T23:01:56.226Z,3.08
2023-08-17T23:04:26.881Z,3.38
2023-08-17T23:06:56.692Z,3.40
2023-08-17T23:09:24.823Z,3.10
2023-08-17T23:11:52.884Z,3.13
2023-08-17T23:14:23.334Z,3.78
2023-08-17T23:16:51.435Z,4.15
2023-08-17T23:19:19.507Z,4.28
2023-08-17T23:21:47.611Z,3.55
2023-08-17T23:24:15.716Z,4.00
2023-08-17T23:26:43.804Z,3.38
2023-08-17T23:29:12.509Z,5.43
2023-08-17T23:31:42.503Z,3.50
2023-08-17T23:34:10.803Z,3.78
2023-08-17T23:36:38.910Z,3.50
2023-08-17T23:39:08.315Z,3.25
2023-08-17T23:41:36.489Z,4.00
2023-08-17T23:44:04.813Z,3.63
2023-08-17T23:46:32.880Z,3.28
2023-08-17T23:49:02.318Z,3.97
2023-08-17T23:51:30.406Z,3.97
2023-08-17T23:53:58.487Z,3.47
2023-08-17T23:56:26.750Z,3.38
2023-08-17T23:58:54.807Z,5.75
